Aérodrome :
LOGIN :

S'inscrire | Disclaimer

   EN    FR    IT 

 










Légende :    VFR   VFR Marginal   IFR   IFR Intensif   IFR Très Intensif
Visi : 
Plafond : 
>= 8 km
>= 3000ft
5 à 8 km
1000 à 3000 ft
1500m à 5 km
500 à 1000 ft
800 à 1500m
200 à 500 ft
< 800m
< 200 ft
Symboles :   Orages  Brouillard  Fortes neiges  Fortes précipitations  Vent > 20 kt
SIGMETs :   Divers  Orages  Givrage  Turbulence  Onde Orograph.  Cendres Volcan.







- Altitude de l'aérodrome : 24 ft
- Code IATA : SGD


EKSB - Sonderborg

DERNIER METAR :
  • 190820Z 28008KT 240V310 9999 -RA BKN020 17/13 Q1017

METARs EXPIRÉS :
  • 190750Z 26008KT 230V290 9999 -RA BKN020 BKN040 18/14 Q1017
  • 190720Z 24009KT 210V270 9999 SCT020 BKN055 18/14 Q1016
  • 190650Z 25008KT 220V280 9999 SCT020 BKN055 17/14 Q1016
  • 190620Z 24008KT 190V290 9999 BKN018 BKN055 17/14 Q1016
  • 190550Z 24008KT 200V270 9999 SCT015 BKN055 17/15 Q1015

TAF TAF EKSB
Valide du 19 à 06h jusqu'au 19 à 15h UTC


190556Z 1906/1915 24008KT 9999 SCT012 BKN035
TEMPO 1906/1909 BKN012
BECMG 1907/1910 27012KT
TEMPO 1910/1915 27015G25KT
Pas de NOTAMs connus pour ce terrain.



MET'MAP, la Météo Aéronautique d'un coup d'oeil ! - Copyright ORBIFLY Décembre 2007 - Disclaimer

ORBIFLY MET'MAP TEAM :

Programmation & Développement : Alexandra Zaïnal
Conception & Développement : Baudouin d'Aumeries
Co-Programmation & Développement : Marc-Olivier Méhu
Soutien technique & logistique : Manuel Goepfert

Contact : metmap@orbifly.com




SOURCES & CREDITS :

   NOAA